sensor_id;sensor_type;location;lat;lon;timestamp;pressure;altitude;pressure_sealevel;temperature;humidity
62655;BME280;48717;55.556;37.816;2022-08-19T00:01:57;100020.00;;;24.10;42.68
62655;BME280;48717;55.556;37.816;2022-08-19T00:04:28;100026.81;;;24.17;42.37
62655;BME280;48717;55.556;37.816;2022-08-19T00:06:56;100028.69;;;24.15;42.33
62655;BME280;48717;55.556;37.816;2022-08-19T00:09:24;100010.97;;;23.93;42.91
62655;BME280;48717;55.556;37.816;2022-08-19T00:11:53;100032.06;;;24.03;42.92
62655;BME280;48717;55.556;37.816;2022-08-19T00:14:24;100032.69;;;24.08;42.83
62655;BME280;48717;55.556;37.816;2022-08-19T00:16:52;100040.28;;;24.17;42.57
62655;BME280;48717;55.556;37.816;2022-08-19T00:19:22;100012.06;;;24.07;42.62
62655;BME280;48717;55.556;37.816;2022-08-19T00:21:50;100033.78;;;24.21;42.46
62655;BME280;48717;55.556;37.816;2022-08-19T00:24:18;100025.16;;;24.15;42.27
62655;BME280;48717;55.556;37.816;2022-08-19T00:26:45;100030.81;;;24.08;42.61
62655;BME280;48717;55.556;37.816;2022-08-19T00:29:15;100042.09;;;23.99;42.79
62655;BME280;48717;55.556;37.816;2022-08-19T00:31:44;100049.50;;;23.95;43.10
62655;BME280;48717;55.556;37.816;2022-08-19T00:34:14;100036.06;;;23.78;43.08
62655;BME280;48717;55.556;37.816;2022-08-19T00:36:41;100047.91;;;23.91;43.00
62655;BME280;48717;55.556;37.816;2022-08-19T00:39:10;100052.91;;;23.81;43.05
62655;BME280;48717;55.556;37.816;2022-08-19T00:41:37;100033.81;;;23.33;43.93
62655;BME280;48717;55.556;37.816;2022-08-19T00:44:11;100063.06;;;23.21;44.41
62655;BME280;48717;55.556;37.816;2022-08-19T00:46:42;100058.00;;;23.15;44.41
62655;BME280;48717;55.556;37.816;2022-08-19T00:49:10;100076.44;;;23.23;44.35
62655;BME280;48717;55.556;37.816;2022-08-19T00:51:43;100069.06;;;23.09;44.33
62655;BME280;48717;55.556;37.816;2022-08-19T00:54:15;100072.97;;;22.84;44.84
62655;BME280;48717;55.556;37.816;2022-08-19T00:56:43;100088.00;;;22.69;45.23
62655;BME280;48717;55.556;37.816;2022-08-19T00:59:10;100082.41;;;22.74;45.13
62655;BME280;48717;55.556;37.816;2022-08-19T01:01:39;100071.69;;;22.91;44.87
62655;BME280;48717;55.556;37.816;2022-08-19T01:04:07;100080.91;;;22.87;44.37
62655;BME280;48717;55.556;37.816;2022-08-19T01:06:39;100063.88;;;22.67;44.81
62655;BME280;48717;55.556;37.816;2022-08-19T01:09:11;100077.53;;;22.82;44.43
62655;BME280;48717;55.556;37.816;2022-08-19T01:11:41;100068.97;;;22.74;44.17
62655;BME280;48717;55.556;37.816;2022-08-19T01:14:10;100060.13;;;22.72;44.23
62655;BME280;48717;55.556;37.816;2022-08-19T01:16:39;100050.38;;;22.88;43.95
62655;BME280;48717;55.556;37.816;2022-08-19T01:19:18;100078.63;;;23.34;43.31
62655;BME280;48717;55.556;37.816;2022-08-19T01:22:00;100077.69;;;23.35;43.03
62655;BME280;48717;55.556;37.816;2022-08-19T01:24:40;100048.53;;;23.26;43.13
62655;BME280;48717;55.556;37.816;2022-08-19T01:27:16;100077.94;;;23.48;42.70
62655;BME280;48717;55.556;37.816;2022-08-19T01:29:44;100078.16;;;23.43;42.94
62655;BME280;48717;55.556;37.816;2022-08-19T01:32:14;100070.56;;;23.34;42.77
62655;BME280;48717;55.556;37.816;2022-08-19T01:35:00;100043.63;;;23.16;43.40
62655;BME280;48717;55.556;37.816;2022-08-19T01:37:40;100046.91;;;23.04;43.77
62655;BME280;48717;55.556;37.816;2022-08-19T01:40:08;100048.75;;;23.03;43.56
62655;BME280;48717;55.556;37.816;2022-08-19T01:42:36;100060.94;;;22.91;43.83
62655;BME280;48717;55.556;37.816;2022-08-19T01:45:05;100071.88;;;22.88;44.09
62655;BME280;48717;55.556;37.816;2022-08-19T01:47:35;100061.09;;;23.07;43.66
62655;BME280;48717;55.556;37.816;2022-08-19T01:50:03;100087.66;;;23.14;43.54
62655;BME280;48717;55.556;37.816;2022-08-19T01:52:30;100092.50;;;22.68;44.34
62655;BME280;48717;55.556;37.816;2022-08-19T01:54:57;100059.09;;;22.55;44.33
62655;BME280;48717;55.556;37.816;2022-08-19T01:57:25;100086.84;;;22.55;45.14
62655;BME280;48717;55.556;37.816;2022-08-19T01:59:52;100070.53;;;22.39;45.25
62655;BME280;48717;55.556;37.816;2022-08-19T02:02:20;100073.44;;;22.54;44.77
62655;BME280;48717;55.556;37.816;2022-08-19T02:04:47;100055.31;;;22.59;44.39
62655;BME280;48717;55.556;37.816;2022-08-19T02:07:14;100060.56;;;22.62;43.91
62655;BME280;48717;55.556;37.816;2022-08-19T02:09:42;100077.69;;;22.79;43.85
62655;BME280;48717;55.556;37.816;2022-08-19T02:12:09;100088.31;;;22.63;44.20
62655;BME280;48717;55.556;37.816;2022-08-19T02:14:36;100080.25;;;22.63;43.92
62655;BME280;48717;55.556;37.816;2022-08-19T02:17:04;100040.03;;;22.40;44.15
62655;BME280;48717;55.556;37.816;2022-08-19T02:19:31;100081.16;;;22.62;44.01
62655;BME280;48717;55.556;37.816;2022-08-19T02:21:59;100077.22;;;22.50;43.97
62655;BME280;48717;55.556;37.816;2022-08-19T02:24:27;100074.03;;;22.41;44.13
62655;BME280;48717;55.556;37.816;2022-08-19T02:26:54;100094.41;;;22.66;44.11
62655;BME280;48717;55.556;37.816;2022-08-19T02:29:21;100080.47;;;22.77;43.78
62655;BME280;48717;55.556;37.816;2022-08-19T02:31:48;100088.44;;;22.79;43.75
62655;BME280;48717;55.556;37.816;2022-08-19T02:34:16;100073.03;;;22.63;43.99
62655;BME280;48717;55.556;37.816;2022-08-19T02:36:43;100092.50;;;22.68;43.83
62655;BME280;48717;55.556;37.816;2022-08-19T02:39:17;100093.53;;;22.85;43.47
62655;BME280;48717;55.556;37.816;2022-08-19T02:41:45;100079.88;;;22.71;43.74
62655;BME280;48717;55.556;37.816;2022-08-19T02:44:12;100097.28;;;22.81;43.84
62655;BME280;48717;55.556;37.816;2022-08-19T02:46:57;100095.19;;;22.68;44.03
62655;BME280;48717;55.556;37.816;2022-08-19T02:49:24;100093.88;;;22.58;43.88
62655;BME280;48717;55.556;37.816;2022-08-19T02:51:51;100106.25;;;22.41;44.67
62655;BME280;48717;55.556;37.816;2022-08-19T02:54:18;100103.22;;;22.30;44.92
62655;BME280;48717;55.556;37.816;2022-08-19T02:56:46;100084.13;;;22.15;45.20
62655;BME280;48717;55.556;37.816;2022-08-19T02:59:13;100099.28;;;22.37;44.59
62655;BME280;48717;55.556;37.816;2022-08-19T03:01:41;100087.22;;;22.27;44.72
62655;BME280;48717;55.556;37.816;2022-08-19T03:04:12;100113.53;;;22.39;44.64
62655;BME280;48717;55.556;37.816;2022-08-19T03:06:41;100099.22;;;22.18;45.04
62655;BME280;48717;55.556;37.816;2022-08-19T03:09:09;100115.69;;;22.31;45.19
62655;BME280;48717;55.556;37.816;2022-08-19T03:11:37;100114.38;;;22.21;45.09
62655;BME280;48717;55.556;37.816;2022-08-19T03:14:06;100114.63;;;22.14;45.51
62655;BME280;48717;55.556;37.816;2022-08-19T03:16:45;100110.88;;;21.77;46.43
62655;BME280;48717;55.556;37.816;2022-08-19T03:19:15;100105.53;;;21.77;46.26
62655;BME280;48717;55.556;37.816;2022-08-19T03:21:43;100110.59;;;21.83;46.29
62655;BME280;48717;55.556;37.816;2022-08-19T03:24:14;100114.63;;;21.94;46.08
62655;BME280;48717;55.556;37.816;2022-08-19T03:26:44;100115.56;;;22.13;45.62
62655;BME280;48717;55.556;37.816;2022-08-19T03:29:12;100106.44;;;22.17;45.58
62655;BME280;48717;55.556;37.816;2022-08-19T03:31:42;100095.47;;;22.03;45.65
62655;BME280;48717;55.556;37.816;2022-08-19T03:34:22;100102.28;;;21.89;46.43
62655;BME280;48717;55.556;37.816;2022-08-19T03:36:59;100119.72;;;21.79;46.97
62655;BME280;48717;55.556;37.816;2022-08-19T03:39:27;100102.91;;;21.53;47.62
62655;BME280;48717;55.556;37.816;2022-08-19T03:41:55;100116.97;;;21.58;47.39
62655;BME280;48717;55.556;37.816;2022-08-19T03:44:47;100107.81;;;21.64;47.50
62655;BME280;48717;55.556;37.816;2022-08-19T03:47:14;100091.03;;;21.59;47.31
62655;BME280;48717;55.556;37.816;2022-08-19T03:49:43;100104.69;;;21.75;46.97
62655;BME280;48717;55.556;37.816;2022-08-19T03:52:11;100105.25;;;21.83;46.85
62655;BME280;48717;55.556;37.816;2022-08-19T03:54:38;100120.00;;;22.14;46.46
62655;BME280;48717;55.556;37.816;2022-08-19T03:57:06;100117.53;;;22.10;46.49
62655;BME280;48717;55.556;37.816;2022-08-19T03:59:35;100115.84;;;21.86;47.20
62655;BME280;48717;55.556;37.816;2022-08-19T04:02:11;100061.16;;;21.25;48.08
62655;BME280;48717;55.556;37.816;2022-08-19T04:04:40;100096.19;;;21.43;48.44
62655;BME280;48717;55.556;37.816;2022-08-19T04:07:09;100109.38;;;21.70;47.67
62655;BME280;48717;55.556;37.816;2022-08-19T04:09:36;100045.25;;;21.63;47.40
62655;BME280;48717;55.556;37.816;2022-08-19T04:12:06;100107.78;;;22.07;47.00
62655;BME280;48717;55.556;37.816;2022-08-19T04:14:34;100106.97;;;22.26;46.73
62655;BME280;48717;55.556;37.816;2022-08-19T04:17:02;100123.59;;;22.55;46.12
62655;BME280;48717;55.556;37.816;2022-08-19T04:19:35;100130.00;;;22.72;45.50
62655;BME280;48717;55.556;37.816;2022-08-19T04:22:03;100130.78;;;22.74;45.38
62655;BME280;48717;55.556;37.816;2022-08-19T04:24:31;100121.09;;;22.50;46.04
62655;BME280;48717;55.556;37.816;2022-08-19T04:27:02;100134.84;;;22.42;46.43
62655;BME280;48717;55.556;37.816;2022-08-19T04:29:29;100125.44;;;22.53;45.93
62655;BME280;48717;55.556;37.816;2022-08-19T04:31:59;100126.91;;;22.60;45.90
62655;BME280;48717;55.556;37.816;2022-08-19T04:34:36;100124.91;;;22.65;45.34
62655;BME280;48717;55.556;37.816;2022-08-19T04:37:23;100129.69;;;22.78;45.42
62655;BME280;48717;55.556;37.816;2022-08-19T04:40:04;100129.56;;;22.81;45.80
62655;BME280;48717;55.556;37.816;2022-08-19T04:42:50;100113.28;;;22.65;45.31
62655;BME280;48717;55.556;37.816;2022-08-19T04:45:18;100126.59;;;22.87;44.96
62655;BME280;48717;55.556;37.816;2022-08-19T04:47:49;100136.25;;;22.72;45.75
62655;BME280;48717;55.556;37.816;2022-08-19T04:50:26;100121.34;;;22.44;46.25
62655;BME280;48717;55.556;37.816;2022-08-19T04:52:55;100127.63;;;22.45;46.12
62655;BME280;48717;55.556;37.816;2022-08-19T04:55:23;100129.72;;;22.59;46.08
62655;BME280;48717;55.556;37.816;2022-08-19T04:57:53;100106.13;;;22.45;46.37
62655;BME280;48717;55.556;37.816;2022-08-19T05:00:21;100133.19;;;22.61;46.06
62655;BME280;48717;55.556;37.816;2022-08-19T05:02:49;100111.56;;;22.43;46.40
62655;BME280;48717;55.556;37.816;2022-08-19T05:05:16;100126.31;;;22.34;47.16
62655;BME280;48717;55.556;37.816;2022-08-19T05:07:47;100119.16;;;22.33;46.47
62655;BME280;48717;55.556;37.816;2022-08-19T05:10:16;100127.88;;;22.38;46.58
62655;BME280;48717;55.556;37.816;2022-08-19T05:12:47;100132.56;;;22.54;46.49
62655;BME280;48717;55.556;37.816;2022-08-19T05:15:19;100097.47;;;22.59;45.91
62655;BME280;48717;55.556;37.816;2022-08-19T05:17:49;100113.94;;;22.89;45.15
62655;BME280;48717;55.556;37.816;2022-08-19T05:20:57;100131.28;;;23.20;44.78
62655;BME280;48717;55.556;37.816;2022-08-19T05:23:44;100108.25;;;23.32;44.52
62655;BME280;48717;55.556;37.816;2022-08-19T05:26:11;100136.22;;;23.67;44.20
62655;BME280;48717;55.556;37.816;2022-08-19T05:28:38;100123.22;;;23.93;43.29
62655;BME280;48717;55.556;37.816;2022-08-19T05:31:06;100101.59;;;23.94;42.90
62655;BME280;48717;55.556;37.816;2022-08-19T05:33:34;100113.78;;;24.19;42.69
62655;BME280;48717;55.556;37.816;2022-08-19T05:36:04;100117.56;;;24.33;42.61
62655;BME280;48717;55.556;37.816;2022-08-19T05:38:31;100105.34;;;24.43;42.01
62655;BME280;48717;55.556;37.816;2022-08-19T05:40:58;100120.41;;;24.63;41.54
62655;BME280;48717;55.556;37.816;2022-08-19T05:43:25;100099.50;;;24.85;41.12
62655;BME280;48717;55.556;37.816;2022-08-19T05:45:52;100112.72;;;25.06;40.60
62655;BME280;48717;55.556;37.816;2022-08-19T05:48:20;100117.00;;;25.10;40.41
62655;BME280;48717;55.556;37.816;2022-08-19T05:50:47;100104.88;;;24.85;40.88
62655;BME280;48717;55.556;37.816;2022-08-19T05:53:17;100122.84;;;24.68;41.22
62655;BME280;48717;55.556;37.816;2022-08-19T05:55:44;100098.91;;;24.46;41.79
62655;BME280;48717;55.556;37.816;2022-08-19T05:58:12;100114.19;;;24.45;42.32
62655;BME280;48717;55.556;37.816;2022-08-19T06:00:42;100117.94;;;24.43;42.45
62655;BME280;48717;55.556;37.816;2022-08-19T06:03:10;100125.13;;;24.42;42.45
62655;BME280;48717;55.556;37.816;2022-08-19T06:05:39;100117.31;;;24.37;42.29
62655;BME280;48717;55.556;37.816;2022-08-19T06:08:18;100087.25;;;24.11;42.53
62655;BME280;48717;55.556;37.816;2022-08-19T06:10:46;100080.16;;;24.10;42.83
62655;BME280;48717;55.556;37.816;2022-08-19T06:13:13;100110.31;;;24.17;42.98
62655;BME280;48717;55.556;37.816;2022-08-19T06:15:41;100125.97;;;24.09;43.15
62655;BME280;48717;55.556;37.816;2022-08-19T06:18:11;100128.81;;;24.06;43.71
62655;BME280;48717;55.556;37.816;2022-08-19T06:20:38;100132.03;;;24.14;43.55
62655;BME280;48717;55.556;37.816;2022-08-19T06:23:22;100138.19;;;24.34;43.42
62655;BME280;48717;55.556;37.816;2022-08-19T06:25:50;100118.06;;;24.23;43.31
62655;BME280;48717;55.556;37.816;2022-08-19T06:28:17;100142.84;;;24.30;43.31
62655;BME280;48717;55.556;37.816;2022-08-19T06:30:44;100106.91;;;24.14;43.30
62655;BME280;48717;55.556;37.816;2022-08-19T06:33:12;100130.09;;;24.34;43.07
62655;BME280;48717;55.556;37.816;2022-08-19T06:35:40;100126.56;;;24.49;42.65
62655;BME280;48717;55.556;37.816;2022-08-19T06:38:08;100131.53;;;24.73;42.06
62655;BME280;48717;55.556;37.816;2022-08-19T06:40:36;100143.53;;;25.01;41.56
62655;BME280;48717;55.556;37.816;2022-08-19T06:43:05;100133.16;;;25.73;39.95
62655;BME280;48717;55.556;37.816;2022-08-19T06:45:37;100131.78;;;25.96;38.86
62655;BME280;48717;55.556;37.816;2022-08-19T06:48:05;100113.06;;;25.93;39.14
62655;BME280;48717;55.556;37.816;2022-08-19T06:50:33;100103.59;;;26.45;37.97
62655;BME280;48717;55.556;37.816;2022-08-19T06:53:05;100131.41;;;26.62;38.20
62655;BME280;48717;55.556;37.816;2022-08-19T06:55:33;100073.09;;;26.29;38.13
62655;BME280;48717;55.556;37.816;2022-08-19T06:58:03;100130.03;;;26.55;37.67
62655;BME280;48717;55.556;37.816;2022-08-19T07:00:33;100135.16;;;26.45;38.52
62655;BME280;48717;55.556;37.816;2022-08-19T07:03:00;100136.28;;;26.55;37.36
62655;BME280;48717;55.556;37.816;2022-08-19T07:05:41;100122.97;;;26.38;37.61
62655;BME280;48717;55.556;37.816;2022-08-19T07:08:12;100140.84;;;26.55;37.46
62655;BME280;48717;55.556;37.816;2022-08-19T07:10:44;100135.34;;;26.71;37.32
62655;BME280;48717;55.556;37.816;2022-08-19T07:13:11;100128.94;;;27.01;36.79
62655;BME280;48717;55.556;37.816;2022-08-19T07:15:38;100137.69;;;27.47;35.53
62655;BME280;48717;55.556;37.816;2022-08-19T07:18:05;100102.75;;;27.29;35.16
62655;BME280;48717;55.556;37.816;2022-08-19T07:20:37;100119.56;;;27.75;35.05
62655;BME280;48717;55.556;37.816;2022-08-19T07:23:07;100129.59;;;28.13;34.30
62655;BME280;48717;55.556;37.816;2022-08-19T07:25:37;100121.16;;;28.31;33.74
62655;BME280;48717;55.556;37.816;2022-08-19T07:28:06;100132.41;;;28.64;33.73
62655;BME280;48717;55.556;37.816;2022-08-19T07:30:49;100114.41;;;28.63;33.08
62655;BME280;48717;55.556;37.816;2022-08-19T07:33:18;100118.97;;;28.62;33.22
62655;BME280;48717;55.556;37.816;2022-08-19T07:35:46;100102.31;;;28.43;33.54
62655;BME280;48717;55.556;37.816;2022-08-19T07:38:13;100098.78;;;28.66;32.59
62655;BME280;48717;55.556;37.816;2022-08-19T07:40:41;100124.44;;;29.00;32.37
62655;BME280;48717;55.556;37.816;2022-08-19T07:43:09;100118.19;;;28.73;32.70
62655;BME280;48717;55.556;37.816;2022-08-19T07:45:42;100116.06;;;29.03;32.26
62655;BME280;48717;55.556;37.816;2022-08-19T07:48:09;100128.13;;;28.99;32.24
62655;BME280;48717;55.556;37.816;2022-08-19T07:50:37;100116.94;;;29.03;31.79
62655;BME280;48717;55.556;37.816;2022-08-19T07:53:04;100112.91;;;29.09;31.87
62655;BME280;48717;55.556;37.816;2022-08-19T07:55:31;100120.28;;;29.31;31.63
62655;BME280;48717;55.556;37.816;2022-08-19T07:58:11;100105.44;;;29.49;31.83
62655;BME280;48717;55.556;37.816;2022-08-19T08:00:38;100112.16;;;29.92;30.93
62655;BME280;48717;55.556;37.816;2022-08-19T08:03:06;100116.75;;;30.03;30.71
62655;BME280;48717;55.556;37.816;2022-08-19T08:05:33;100119.53;;;30.48;29.69
62655;BME280;48717;55.556;37.816;2022-08-19T08:08:18;100105.56;;;30.53;29.41
62655;BME280;48717;55.556;37.816;2022-08-19T08:11:11;100102.09;;;30.51;28.93
62655;BME280;48717;55.556;37.816;2022-08-19T08:13:42;100108.88;;;30.22;29.44
62655;BME280;48717;55.556;37.816;2022-08-19T08:16:09;100124.13;;;30.01;29.58
62655;BME280;48717;55.556;37.816;2022-08-19T08:18:40;100121.84;;;29.72;30.13
62655;BME280;48717;55.556;37.816;2022-08-19T08:21:17;100135.56;;;29.70;30.36
62655;BME280;48717;55.556;37.816;2022-08-19T08:23:44;100124.75;;;29.57;30.22
62655;BME280;48717;55.556;37.816;2022-08-19T08:26:11;100124.34;;;30.22;29.38
62655;BME280;48717;55.556;37.816;2022-08-19T08:28:41;100116.28;;;30.89;28.76
62655;BME280;48717;55.556;37.816;2022-08-19T08:31:13;100112.31;;;30.93;28.41
62655;BME280;48717;55.556;37.816;2022-08-19T08:33:41;100124.91;;;31.17;28.06
62655;BME280;48717;55.556;37.816;2022-08-19T08:36:10;100109.44;;;31.50;27.43
62655;BME280;48717;55.556;37.816;2022-08-19T08:38:38;100138.53;;;31.06;27.41
62655;BME280;48717;55.556;37.816;2022-08-19T08:41:27;100138.34;;;30.86;27.90
62655;BME280;48717;55.556;37.816;2022-08-19T08:43:56;100135.84;;;30.26;28.76
62655;BME280;48717;55.556;37.816;2022-08-19T08:46:43;100141.50;;;30.22;28.53
62655;BME280;48717;55.556;37.816;2022-08-19T08:54:46;100138.00;;;31.12;26.66
62655;BME280;48717;55.556;37.816;2022-08-19T08:57:35;100150.25;;;31.29;26.76
62655;BME280;48717;55.556;37.816;2022-08-19T09:00:15;100150.69;;;30.90;26.45
62655;BME280;48717;55.556;37.816;2022-08-19T09:02:44;100136.59;;;30.62;27.86
62655;BME280;48717;55.556;37.816;2022-08-19T09:05:18;100155.38;;;30.54;28.06
62655;BME280;48717;55.556;37.816;2022-08-19T09:08:08;100146.00;;;30.92;27.36
62655;BME280;48717;55.556;37.816;2022-08-19T09:10:44;100054.22;;;30.48;27.46
62655;BME280;48717;55.556;37.816;2022-08-19T09:15:49;100146.69;;;31.83;25.83
62655;BME280;48717;55.556;37.816;2022-08-19T09:18:19;100142.47;;;31.90;25.59
62655;BME280;48717;55.556;37.816;2022-08-19T09:20:47;100134.59;;;31.75;24.82
62655;BME280;48717;55.556;37.816;2022-08-19T09:23:14;100134.34;;;32.21;24.59
62655;BME280;48717;55.556;37.816;2022-08-19T09:25:42;100125.22;;;32.32;24.60
62655;BME280;48717;55.556;37.816;2022-08-19T09:28:09;100134.72;;;32.07;24.65
62655;BME280;48717;55.556;37.816;2022-08-19T09:30:47;100136.16;;;31.57;24.66
62655;BME280;48717;55.556;37.816;2022-08-19T09:33:18;100131.56;;;31.90;24.02
62655;BME280;48717;55.556;37.816;2022-08-19T09:35:46;100160.31;;;31.94;23.36
62655;BME280;48717;55.556;37.816;2022-08-19T09:38:20;100153.59;;;31.87;23.23
62655;BME280;48717;55.556;37.816;2022-08-19T09:40:48;100160.34;;;31.50;23.71
62655;BME280;48717;55.556;37.816;2022-08-19T09:43:17;100166.22;;;31.22;23.65
62655;BME280;48717;55.556;37.816;2022-08-19T09:46:01;100165.97;;;31.37;23.75
62655;BME280;48717;55.556;37.816;2022-08-19T09:48:28;100159.38;;;32.05;22.91
62655;BME280;48717;55.556;37.816;2022-08-19T09:51:05;100142.50;;;32.42;22.37
62655;BME280;48717;55.556;37.816;2022-08-19T09:53:38;100164.00;;;32.98;21.34
62655;BME280;48717;55.556;37.816;2022-08-19T09:56:06;100166.28;;;32.93;21.05
62655;BME280;48717;55.556;37.816;2022-08-19T09:58:35;100159.97;;;32.92;20.84
62655;BME280;48717;55.556;37.816;2022-08-19T10:01:04;100158.34;;;33.31;20.18
62655;BME280;48717;55.556;37.816;2022-08-19T10:03:33;100165.63;;;32.69;21.05
62655;BME280;48717;55.556;37.816;2022-08-19T10:06:03;100138.56;;;32.98;20.25
62655;BME280;48717;55.556;37.816;2022-08-19T10:08:40;100151.47;;;33.76;18.95
62655;BME280;48717;55.556;37.816;2022-08-19T10:11:16;100158.34;;;33.41;18.26
62655;BME280;48717;55.556;37.816;2022-08-19T10:14:03;100162.47;;;33.05;18.58
62655;BME280;48717;55.556;37.816;2022-08-19T10:16:32;100144.53;;;33.13;18.88
62655;BME280;48717;55.556;37.816;2022-08-19T10:19:05;100163.81;;;33.41;18.91
62655;BME280;48717;55.556;37.816;2022-08-19T10:21:33;100175.66;;;33.71;18.71
62655;BME280;48717;55.556;37.816;2022-08-19T10:24:03;100164.06;;;33.08;18.97
62655;BME280;48717;55.556;37.816;2022-08-19T10:26:38;100198.78;;;32.96;19.41
62655;BME280;48717;55.556;37.816;2022-08-19T10:29:08;100183.53;;;32.93;19.48
62655;BME280;48717;55.556;37.816;2022-08-19T10:31:38;100154.38;;;32.63;19.48
62655;BME280;48717;55.556;37.816;2022-08-19T10:34:30;100176.06;;;32.12;20.35
62655;BME280;48717;55.556;37.816;2022-08-19T10:36:58;100181.72;;;31.66;20.42
62655;BME280;48717;55.556;37.816;2022-08-19T10:39:32;100136.34;;;31.76;20.01
62655;BME280;48717;55.556;37.816;2022-08-19T10:42:09;100178.00;;;32.21;19.67
62655;BME280;48717;55.556;37.816;2022-08-19T10:44:41;100183.44;;;32.64;19.35
62655;BME280;48717;55.556;37.816;2022-08-19T10:47:09;100186.50;;;32.28;20.11
62655;BME280;48717;55.556;37.816;2022-08-19T10:50:15;100185.66;;;32.90;20.03
62655;BME280;48717;55.556;37.816;2022-08-19T10:53:07;100183.00;;;32.68;20.35
62655;BME280;48717;55.556;37.816;2022-08-19T10:55:35;100170.75;;;32.63;20.91
62655;BME280;48717;55.556;37.816;2022-08-19T10:58:22;100181.41;;;32.66;20.70
62655;BME280;48717;55.556;37.816;2022-08-19T11:00:55;100182.47;;;33.16;20.31
62655;BME280;48717;55.556;37.816;2022-08-19T11:03:24;100182.50;;;33.36;20.56
62655;BME280;48717;55.556;37.816;2022-08-19T11:06:03;100187.94;;;32.85;20.63
62655;BME280;48717;55.556;37.816;2022-08-19T11:08:32;100186.38;;;32.29;21.03
62655;BME280;48717;55.556;37.816;2022-08-19T11:11:00;100180.59;;;32.44;20.96
62655;BME280;48717;55.556;37.816;2022-08-19T11:13:38;100178.16;;;32.82;20.74
62655;BME280;48717;55.556;37.816;2022-08-19T11:16:11;100178.06;;;32.93;20.58
62655;BME280;48717;55.556;37.816;2022-08-19T11:18:44;100164.88;;;32.99;20.42
62655;BME280;48717;55.556;37.816;2022-08-19T11:21:58;100172.84;;;33.21;19.96
62655;BME280;48717;55.556;37.816;2022-08-19T11:24:30;100161.56;;;32.95;20.30
62655;BME280;48717;55.556;37.816;2022-08-19T11:27:05;100161.59;;;32.64;20.63
62655;BME280;48717;55.556;37.816;2022-08-19T11:29:34;100176.03;;;32.54;20.71
62655;BME280;48717;55.556;37.816;2022-08-19T11:32:10;100166.53;;;32.27;21.03
62655;BME280;48717;55.556;37.816;2022-08-19T11:34:38;100172.22;;;31.82;21.35
62655;BME280;48717;55.556;37.816;2022-08-19T11:37:06;100177.69;;;31.82;22.03
62655;BME280;48717;55.556;37.816;2022-08-19T11:39:35;100166.53;;;30.96;22.64
62655;BME280;48717;55.556;37.816;2022-08-19T11:42:05;100178.28;;;30.63;23.21
62655;BME280;48717;55.556;37.816;2022-08-19T11:44:47;100176.38;;;30.40;23.13
62655;BME280;48717;55.556;37.816;2022-08-19T11:47:14;100173.16;;;30.35;23.10
62655;BME280;48717;55.556;37.816;2022-08-19T11:49:41;100157.19;;;31.33;22.10
62655;BME280;48717;55.556;37.816;2022-08-19T11:52:09;100170.06;;;32.18;21.62
62655;BME280;48717;55.556;37.816;2022-08-19T11:54:41;100155.78;;;32.47;21.26
62655;BME280;48717;55.556;37.816;2022-08-19T11:57:09;100154.66;;;32.91;21.19
62655;BME280;48717;55.556;37.816;2022-08-19T11:59:50;100126.56;;;33.40;20.18
62655;BME280;48717;55.556;37.816;2022-08-19T12:02:20;100160.34;;;33.19;20.55
62655;BME280;48717;55.556;37.816;2022-08-19T12:04:49;100154.28;;;33.25;20.99
62655;BME280;48717;55.556;37.816;2022-08-19T12:07:17;100155.22;;;33.75;20.16
62655;BME280;48717;55.556;37.816;2022-08-19T12:09:48;100153.28;;;34.05;19.78
62655;BME280;48717;55.556;37.816;2022-08-19T12:12:15;100152.75;;;34.59;19.43
62655;BME280;48717;55.556;37.816;2022-08-19T12:14:45;100123.28;;;35.27;18.81
62655;BME280;48717;55.556;37.816;2022-08-19T12:17:13;100162.13;;;34.95;18.93
62655;BME280;48717;55.556;37.816;2022-08-19T12:19:40;100148.28;;;33.91;20.33
62655;BME280;48717;55.556;37.816;2022-08-19T12:22:08;100166.97;;;33.26;20.77
62655;BME280;48717;55.556;37.816;2022-08-19T12:24:35;100168.06;;;33.04;21.51
62655;BME280;48717;55.556;37.816;2022-08-19T12:27:02;100162.69;;;32.51;22.10
62655;BME280;48717;55.556;37.816;2022-08-19T12:29:29;100161.19;;;33.10;21.43
62655;BME280;48717;55.556;37.816;2022-08-19T12:31:58;100157.66;;;33.98;20.44
62655;BME280;48717;55.556;37.816;2022-08-19T12:34:32;100153.94;;;34.47;19.68
62655;BME280;48717;55.556;37.816;2022-08-19T12:37:00;100167.66;;;34.85;19.24
62655;BME280;48717;55.556;37.816;2022-08-19T12:39:28;100160.84;;;33.83;20.67
62655;BME280;48717;55.556;37.816;2022-08-19T12:41:55;100167.59;;;33.59;20.69
62655;BME280;48717;55.556;37.816;2022-08-19T12:44:22;100157.78;;;33.47;20.99
62655;BME280;48717;55.556;37.816;2022-08-19T12:46:56;100156.25;;;32.41;21.96
62655;BME280;48717;55.556;37.816;2022-08-19T12:49:23;100141.88;;;32.08;22.44
62655;BME280;48717;55.556;37.816;2022-08-19T12:52:12;100167.59;;;32.58;22.36
62655;BME280;48717;55.556;37.816;2022-08-19T12:54:48;100164.47;;;32.62;21.97
62655;BME280;48717;55.556;37.816;2022-08-19T12:57:22;100156.78;;;31.49;23.13
62655;BME280;48717;55.556;37.816;2022-08-19T13:00:06;100173.88;;;29.90;25.79
62655;BME280;48717;55.556;37.816;2022-08-19T13:02:38;100181.50;;;29.11;26.88
62655;BME280;48717;55.556;37.816;2022-08-19T13:05:09;100174.50;;;28.70;27.52
62655;BME280;48717;55.556;37.816;2022-08-19T13:07:39;100180.69;;;28.46;28.13
62655;BME280;48717;55.556;37.816;2022-08-19T13:10:08;100168.63;;;27.98;28.77